Time,TemperatureF,DewpointF,PressureIn,WindDirection,WindDirectionDegrees,WindSpeedMPH,WindSpeedGustMPH,Humidity,HourlyPrecipIn,Conditions,Clouds,dailyrainin,SoftwareType,DateUTC
2013-01-21 10:13:00,26.1,6.1,29.85,SSW,202,0.0,0.0,42,0.00,,,0.04,VWS V14.00,2013-01-21 15:13:00,
2013-01-21 10:14:00,26.1,6.1,29.85,SSW,202,0.0,0.0,42,0.00,,,0.00,VWS V14.00,2013-01-21 15:14:00,
2013-01-21 10:18:00,26.1,6.1,29.85,SSW,202,0.0,0.0,42,0.00,,,0.00,VWS V14.00,2013-01-21 15:18:00,
2013-01-21 10:19:00,26.1,6.1,29.85,West,270,0.0,0.0,42,0.00,,,0.00,VWS V14.00,2013-01-21 15:19:00,
2013-01-21 10:20:00,26.1,6.1,29.85,SSW,202,4.9,4.9,42,0.00,,,0.00,VWS V14.00,2013-01-21 15:20:00,
2013-01-21 10:21:00,26.1,6.1,29.85,NE,45,2.7,4.9,42,0.00,,,0.00,VWS V14.00,2013-01-21 15:21:00,
2013-01-21 10:22:00,26.1,6.1,29.85,SW,225,7.6,7.6,42,0.00,,,0.00,VWS V14.00,2013-01-21 15:22:00,
2013-01-21 10:23:00,26.1,6.1,29.85,West,270,0.0,7.6,42,0.00,,,0.00,VWS V14.00,2013-01-21 15:23:00,
2013-01-21 10:24:00,25.9,6.0,29.85,WNW,292,0.0,0.0,42,0.00,,,0.00,VWS V14.00,2013-01-21 15:24:00,
2013-01-21 10:25:00,25.9,6.0,29.85,South,180,0.0,0.0,42,0.00,,,0.00,VWS V14.00,2013-01-21 15:25:00,
2013-01-21 10:26:00,25.9,6.0,29.85,SW,225,0.0,0.0,42,0.00,,,0.00,VWS V14.00,2013-01-21 15:26:00,
2013-01-21 10:27:00,25.9,6.0,29.85,WSW,248,0.0,0.0,42,0.00,,,0.00,VWS V14.00,2013-01-21 15:27:00,
2013-01-21 10:28:00,25.9,6.0,29.85,South,180,0.0,0.0,42,0.00,,,0.00,VWS V14.00,2013-01-21 15:28:00,
2013-01-21 10:29:00,26.1,6.1,29.85,North,0,0.0,0.0,42,0.00,,,0.00,VWS V14.00,2013-01-21 15:29:00,
2013-01-21 10:30:00,25.9,6.0,29.85,West,270,0.0,0.0,42,0.00,,,0.00,VWS V14.00,2013-01-21 15:30:00,
2013-01-21 10:31:00,25.9,6.0,29.85,NE,45,0.0,0.0,42,0.00,,,0.00,VWS V14.00,2013-01-21 15:31:00,
2013-01-21 10:32:00,26.1,6.1,29.85,West,270,0.0,0.0,42,0.00,,,0.00,VWS V14.00,2013-01-21 15:32:00,
2013-01-21 10:33:00,26.1,6.1,29.85,SSW,202,0.0,0.0,42,0.00,,,0.00,VWS V14.00,2013-01-21 15:33:00,
2013-01-21 11:00:00,27.5,6.9,29.85,NNW,338,0.0,0.0,41,0.00,,,0.00,VWS V14.00,2013-01-21 16:00:00,
2013-01-21 11:05:00,27.5,6.9,29.82,WSW,248,0.0,0.0,41,0.00,,,0.00,VWS V14.00,2013-01-21 16:05:00,
2013-01-21 11:10:00,27.7,7.1,29.82,SW,225,0.0,4.0,41,0.00,,,0.00,VWS V14.00,2013-01-21 16:10:00,
2013-01-21 11:15:00,27.9,7.2,29.82,WSW,248,0.0,0.0,41,0.00,,,0.00,VWS V14.00,2013-01-21 16:15:00,
2013-01-21 11:20:00,27.9,7.2,29.79,South,180,0.0,0.0,41,0.00,,,0.00,VWS V14.00,2013-01-21 16:20:00,
2013-01-21 11:25:00,28.0,7.4,29.79,SSW,202,0.0,1.8,41,0.00,,,0.00,VWS V14.00,2013-01-21 16:25:00,
2013-01-21 11:30:00,28.4,7.7,29.79,SW,225,6.7,6.7,41,0.00,,,0.00,VWS V14.00,2013-01-21 16:30:00,
2013-01-21 11:35:00,28.8,8.0,29.79,SSW,202,0.0,0.0,41,0.00,,,0.00,VWS V14.00,2013-01-21 16:35:00,
2013-01-21 11:40:00,28.9,8.2,29.79,SW,225,2.7,2.7,41,0.00,,,0.00,VWS V14.00,2013-01-21 16:40:00,
2013-01-21 11:45:00,28.8,8.0,29.79,North,0,0.0,0.0,41,0.00,,,0.00,VWS V14.00,2013-01-21 16:45:00,
2013-01-21 11:50:00,28.8,8.0,29.79,WNW,292,0.0,0.0,41,0.00,,,0.00,VWS V14.00,2013-01-21 16:50:00,
2013-01-21 11:55:00,28.8,8.0,29.79,NE,45,0.0,0.0,41,0.00,,,0.00,VWS V14.00,2013-01-21 16:55:00,
2013-01-21 12:00:00,28.6,7.9,29.79,SW,225,2.2,2.2,41,0.00,,,0.00,VWS V14.00,2013-01-21 17:00:00,
2013-01-21 12:05:00,29.3,8.5,29.79,SW,225,0.0,0.0,41,0.00,,,0.00,VWS V14.00,2013-01-21 17:05:00,
2013-01-21 12:10:00,29.3,8.5,29.79,SW,225,0.0,0.0,41,0.00,,,0.00,VWS V14.00,2013-01-21 17:10:00,
2013-01-21 12:15:00,28.9,8.2,29.79,SW,225,7.6,7.6,41,0.00,,,0.00,VWS V14.00,2013-01-21 17:15:00,
2013-01-21 12:20:00,29.5,8.7,29.79,WSW,248,2.7,2.7,41,0.00,,,0.00,VWS V14.00,2013-01-21 17:20:00,
2013-01-21 12:25:00,29.5,8.7,29.79,SW,225,0.0,0.0,41,0.00,,,0.00,VWS V14.00,2013-01-21 17:25:00,
2013-01-21 12:30:00,29.5,8.7,29.79,SE,135,0.0,0.0,41,0.00,,,0.00,VWS V14.00,2013-01-21 17:30:00,
2013-01-21 12:35:00,29.3,8.5,29.76,WSW,248,0.0,0.0,41,0.00,,,0.00,VWS V14.00,2013-01-21 17:35:00,
2013-01-21 12:40:00,29.7,8.9,29.76,WSW,248,0.0,0.0,41,0.00,,,0.00,VWS V14.00,2013-01-21 17:40:00,
2013-01-21 12:45:00,30.0,9.2,29.76,WSW,248,2.7,2.7,41,0.00,,,0.00,VWS V14.00,2013-01-21 17:45:00,
2013-01-21 12:50:00,30.4,9.0,29.76,West,270,0.0,0.0,40,0.00,,,0.00,VWS V14.00,2013-01-21 17:50:00,
2013-01-21 12:55:00,31.1,9.6,29.76,WSW,248,0.0,3.1,40,0.00,,,0.00,VWS V14.00,2013-01-21 17:55:00,
2013-01-21 13:00:00,31.8,10.3,29.76,SW,225,2.7,2.7,40,0.00,,,0.00,VWS V14.00,2013-01-21 18:00:00,
2013-01-21 13:05:00,32.4,10.8,29.76,SSE,158,0.0,0.0,40,0.00,,,0.00,VWS V14.00,2013-01-21 18:05:00,
2013-01-21 13:10:00,32.4,10.8,29.76,WSW,248,4.5,4.5,40,0.00,,,0.00,VWS V14.00,2013-01-21 18:10:00,
2013-01-21 13:15:00,32.0,9.3,29.76,SW,225,5.4,5.4,38,0.00,,,0.00,VWS V14.00,2013-01-21 18:15:00,
2013-01-21 13:20:00,31.6,9.5,29.76,SW,225,0.0,3.1,39,0.00,,,0.00,VWS V14.00,2013-01-21 18:20:00,
2013-01-21 13:25:00,31.3,9.8,29.76,WSW,248,0.0,4.9,40,0.00,,,0.00,VWS V14.00,2013-01-21 18:25:00,
2013-01-21 13:30:00,31.1,9.1,29.76,WSW,248,0.0,0.0,39,0.00,,,0.00,VWS V14.00,2013-01-21 18:30:00,
2013-01-21 13:35:00,31.3,9.2,29.74,SW,225,7.2,7.2,39,0.00,,,0.00,VWS V14.00,2013-01-21 18:35:00,
2013-01-21 13:40:00,30.9,8.9,29.74,SSW,202,4.5,4.5,39,0.00,,,0.00,VWS V14.00,2013-01-21 18:40:00,
2013-01-21 13:45:00,30.9,9.4,29.74,NNW,338,0.0,0.0,40,0.00,,,0.00,VWS V14.00,2013-01-21 18:45:00,
2013-01-21 13:50:00,30.9,9.4,29.74,WSW,248,0.0,0.0,40,0.00,,,0.00,VWS V14.00,2013-01-21 18:50:00,
2013-01-21 13:55:00,30.6,9.1,29.74,North,0,0.0,0.0,40,0.00,,,0.00,VWS V14.00,2013-01-21 18:55:00,
2013-01-21 14:00:00,30.6,8.6,29.74,SSW,202,0.0,2.2,39,0.00,,,0.00,VWS V14.00,2013-01-21 19:00:00,
2013-01-21 14:05:00,30.2,8.8,29.74,SSW,202,2.2,2.2,40,0.00,,,0.00,VWS V14.00,2013-01-21 19:05:00,
2013-01-21 14:10:00,30.2,8.8,29.74,ESE,112,1.8,1.8,40,0.00,,,0.00,VWS V14.00,2013-01-21 19:10:00,
2013-01-21 14:15:00,30.2,8.8,29.74,West,270,0.0,0.0,40,0.00,,,0.00,VWS V14.00,2013-01-21 19:15:00,
2013-01-21 14:20:00,30.2,8.2,29.74,WSW,248,0.0,5.4,39,0.00,,,0.00,VWS V14.00,2013-01-21 19:20:00,
2013-01-21 14:25:00,29.7,7.2,29.74,West,270,4.5,7.6,38,0.00,,,0.00,VWS V14.00,2013-01-21 19:25:00,
2013-01-21 14:30:00,29.7,7.8,29.74,WSW,248,0.0,0.0,39,0.00,,,0.00,VWS V14.00,2013-01-21 19:30:00,
2013-01-21 14:35:00,29.5,7.6,29.74,WSW,248,2.7,2.7,39,0.00,,,0.00,VWS V14.00,2013-01-21 19:35:00,
2013-01-21 14:40:00,29.7,7.8,29.74,WSW,248,10.7,10.7,39,0.00,,,0.00,VWS V14.00,2013-01-21 19:40:00,
2013-01-21 14:45:00,29.5,7.6,29.74,WSW,248,4.5,4.5,39,0.00,,,0.00,VWS V14.00,2013-01-21 19:45:00,
2013-01-21 14:50:00,29.5,7.6,29.74,SW,225,3.1,3.1,39,0.00,,,0.00,VWS V14.00,2013-01-21 19:50:00,
2013-01-21 14:55:00,29.5,7.6,29.74,West,270,1.8,2.7,39,0.00,,,0.00,VWS V14.00,2013-01-21 19:55:00,
2013-01-21 15:00:00,29.3,7.4,29.74,SSW,202,2.2,2.2,39,0.00,,,0.00,VWS V14.00,2013-01-21 20:00:00,
2013-01-21 15:05:00,29.1,7.3,29.74,WSW,248,6.3,6.3,39,0.00,,,0.00,VWS V14.00,2013-01-21 20:05:00,
2013-01-21 15:10:00,28.9,7.1,29.74,SW,225,0.0,0.0,39,0.00,,,0.00,VWS V14.00,2013-01-21 20:10:00,
2013-01-21 15:15:00,29.1,7.3,29.74,SSW,202,0.0,0.0,39,0.00,,,0.00,VWS V14.00,2013-01-21 20:15:00,
2013-01-21 15:20:00,28.9,7.1,29.74,WSW,248,0.0,0.0,39,0.00,,,0.00,VWS V14.00,2013-01-21 20:20:00,
2013-01-21 15:25:00,28.9,7.1,29.74,SW,225,0.0,0.0,39,0.00,,,0.00,VWS V14.00,2013-01-21 20:25:00,
2013-01-21 15:30:00,28.8,6.9,29.74,WSW,248,0.0,0.0,39,0.00,,,0.00,VWS V14.00,2013-01-21 20:30:00,
2013-01-21 15:35:00,28.9,7.7,29.71,WSW,248,0.0,0.0,40,0.00,,,0.00,VWS V14.00,2013-01-21 20:35:00,
2013-01-21 15:40:00,28.9,7.7,29.71,WSW,248,0.0,0.0,40,0.00,,,0.00,VWS V14.00,2013-01-21 20:40:00,
2013-01-21 15:45:00,28.8,7.5,29.71,WNW,292,0.0,0.0,40,0.00,,,0.00,VWS V14.00,2013-01-21 20:45:00,
2013-01-21 15:50:00,28.8,7.5,29.71,SSW,202,0.0,0.0,40,0.00,,,0.00,VWS V14.00,2013-01-21 20:50:00,
2013-01-21 15:55:00,28.8,7.5,29.71,West,270,0.0,0.0,40,0.00,,,0.00,VWS V14.00,2013-01-21 20:55:00,
2013-01-21 16:00:00,28.8,7.5,29.71,North,0,0.0,0.0,40,0.00,,,0.00,VWS V14.00,2013-01-21 21:00:00,
2013-01-21 16:05:00,28.8,7.5,29.71,SW,225,0.0,0.0,40,0.00,,,0.00,VWS V14.00,2013-01-21 21:05:00,
2013-01-21 16:10:00,28.8,7.5,29.71,SSW,202,0.0,0.0,40,0.00,,,0.00,VWS V14.00,2013-01-21 21:10:00,
2013-01-21 16:15:00,28.8,7.5,29.71,North,0,0.0,0.0,40,0.00,,,0.00,VWS V14.00,2013-01-21 21:15:00,
2013-01-21 16:20:00,28.6,7.9,29.71,SW,225,0.0,0.0,41,0.00,,,0.00,VWS V14.00,2013-01-21 21:20:00,
2013-01-21 16:25:00,28.6,7.9,29.71,WSW,248,0.0,0.0,41,0.00,,,0.00,VWS V14.00,2013-01-21 21:25:00,
2013-01-21 16:30:00,28.4,7.7,29.71,WSW,248,0.0,0.0,41,0.00,,,0.00,VWS V14.00,2013-01-21 21:30:00,
2013-01-21 16:35:00,28.6,7.9,29.71,WNW,292,0.0,0.0,41,0.00,,,0.00,VWS V14.00,2013-01-21 21:35:00,
2013-01-21 16:40:00,28.4,7.7,29.71,WSW,248,0.0,0.0,41,0.00,,,0.00,VWS V14.00,2013-01-21 21:40:00,
2013-01-21 16:45:00,28.2,7.6,29.71,WNW,292,2.2,2.2,41,0.00,,,0.00,VWS V14.00,2013-01-21 21:45:00,
2013-01-21 16:50:00,28.2,7.6,29.71,North,0,0.0,0.0,41,0.00,,,0.00,VWS V14.00,2013-01-21 21:50:00,
2013-01-21 16:55:00,28.2,7.6,29.71,SW,225,0.0,0.0,41,0.00,,,0.00,VWS V14.00,2013-01-21 21:55:00,
2013-01-21 17:00:00,28.0,7.4,29.71,NNW,338,0.0,0.0,41,0.00,,,0.00,VWS V14.00,2013-01-21 22:00:00,
2013-01-21 17:05:00,28.0,7.4,29.68,WSW,248,4.0,4.0,41,0.00,,,0.00,VWS V14.00,2013-01-21 22:05:00,
2013-01-21 17:10:00,28.0,7.4,29.68,SW,225,0.0,0.0,41,0.00,,,0.00,VWS V14.00,2013-01-21 22:10:00,
2013-01-21 17:15:00,28.0,7.4,29.68,SW,225,0.0,0.0,41,0.00,,,0.00,VWS V14.00,2013-01-21 22:15:00,
2013-01-21 17:20:00,27.9,7.2,29.68,WSW,248,0.0,0.0,41,0.00,,,0.00,VWS V14.00,2013-01-21 22:20:00,
2013-01-21 17:25:00,27.9,7.2,29.68,WSW,248,0.0,0.0,41,0.00,,,0.00,VWS V14.00,2013-01-21 22:25:00,
2013-01-21 17:30:00,27.9,7.8,29.68,West,270,1.8,1.8,42,0.00,,,0.00,VWS V14.00,2013-01-21 22:30:00,
2013-01-21 17:35:00,27.9,7.8,29.68,West,270,0.0,0.0,42,0.00,,,0.00,VWS V14.00,2013-01-21 22:35:00,
2013-01-21 17:40:00,27.7,7.6,29.68,East,90,0.0,0.0,42,0.00,,,0.00,VWS V14.00,2013-01-21 22:40:00,
2013-01-21 17:45:00,27.7,7.6,29.68,WNW,292,0.0,0.0,42,0.00,,,0.00,VWS V14.00,2013-01-21 22:45:00,
2013-01-21 17:50:00,27.5,7.4,29.68,NE,45,0.0,0.0,42,0.00,,,0.00,VWS V14.00,2013-01-21 22:50:00,
2013-01-21 17:55:00,27.7,7.6,29.68,SW,225,0.0,0.0,42,0.00,,,0.00,VWS V14.00,2013-01-21 22:55:00,
2013-01-21 18:00:00,27.5,7.4,29.68,WSW,248,0.0,0.0,42,0.00,,,0.00,VWS V14.00,2013-01-21 23:00:00,
2013-01-21 18:05:00,27.5,7.4,29.68,WNW,292,0.0,0.0,42,0.00,,,0.00,VWS V14.00,2013-01-21 23:05:00,
2013-01-21 18:10:00,27.1,7.6,29.68,NE,45,0.0,0.0,43,0.00,,,0.00,VWS V14.00,2013-01-21 23:10:00,
2013-01-21 18:15:00,27.1,7.6,29.68,WNW,292,0.0,0.0,43,0.00,,,0.00,VWS V14.00,2013-01-21 23:15:00,
2013-01-21 18:20:00,27.0,7.5,29.68,WNW,292,0.0,0.0,43,0.00,,,0.00,VWS V14.00,2013-01-21 23:20:00,
2013-01-21 18:25:00,27.0,8.0,29.68,North,0,0.0,0.0,44,0.00,,,0.00,VWS V14.00,2013-01-21 23:25:00,
2013-01-21 18:30:00,26.8,8.3,29.68,NNW,338,0.0,0.0,45,0.00,,,0.00,VWS V14.00,2013-01-21 23:30:00,
2013-01-21 18:35:00,26.6,8.6,29.68,NNW,338,0.0,0.0,46,0.00,,,0.00,VWS V14.00,2013-01-21 23:35:00,
2013-01-21 18:40:00,26.6,9.1,29.68,NW,315,0.0,0.0,47,0.00,,,0.00,VWS V14.00,2013-01-21 23:40:00,
2013-01-21 18:45:00,26.6,9.6,29.68,West,270,0.0,0.0,48,0.00,,,0.00,VWS V14.00,2013-01-21 23:45:00,
2013-01-21 18:50:00,26.4,9.9,29.71,WNW,292,0.0,0.0,49,0.00,,,0.00,VWS V14.00,2013-01-21 23:50:00,
2013-01-21 18:55:00,26.2,10.1,29.71,NW,315,0.0,0.0,50,0.00,,,0.00,VWS V14.00,2013-01-21 23:55:00,
2013-01-21 19:00:00,26.1,10.4,29.71,NNW,338,0.0,0.0,51,0.00,,,0.00,VWS V14.00,2013-01-22 00:00:00,
2013-01-21 19:05:00,26.1,10.9,29.68,NNW,338,0.0,0.0,52,0.00,,,0.00,VWS V14.00,2013-01-22 00:05:00,
2013-01-21 19:10:00,26.1,10.9,29.68,NW,315,0.0,0.0,52,0.00,,,0.00,VWS V14.00,2013-01-22 00:10:00,
2013-01-21 19:15:00,26.1,10.9,29.68,NNW,338,0.0,0.0,52,0.00,,,0.00,VWS V14.00,2013-01-22 00:15:00,
2013-01-21 19:20:00,25.9,11.1,29.71,NW,315,0.0,0.0,53,0.00,,,0.00,VWS V14.00,2013-01-22 00:20:00,
2013-01-21 19:25:00,25.9,11.1,29.71,WNW,292,0.0,0.0,53,0.00,,,0.00,VWS V14.00,2013-01-22 00:25:00,
2013-01-21 19:30:00,25.7,10.9,29.71,NW,315,0.0,0.0,53,0.00,,,0.00,VWS V14.00,2013-01-22 00:30:00,
2013-01-21 19:35:00,25.7,11.4,29.68,North,0,0.0,0.0,54,0.00,,,0.00,VWS V14.00,2013-01-22 00:35:00,
2013-01-21 19:40:00,25.7,11.4,29.68,SSW,202,0.0,0.0,54,0.00,,,0.00,VWS V14.00,2013-01-22 00:40:00,
2013-01-21 19:45:00,25.7,11.4,29.68,NW,315,0.0,0.0,54,0.00,,,0.00,VWS V14.00,2013-01-22 00:45:00,
2013-01-21 19:50:00,25.7,11.4,29.68,NNE,22,0.0,0.0,54,0.00,,,0.00,VWS V14.00,2013-01-22 00:50:00,
2013-01-21 19:55:00,25.5,11.2,29.68,North,0,0.0,0.0,54,0.00,,,0.00,VWS V14.00,2013-01-22 00:55:00,
2013-01-21 20:00:00,25.3,11.4,29.68,North,0,0.0,0.0,55,0.00,,,0.00,VWS V14.00,2013-01-22 01:00:00,
2013-01-21 20:05:00,25.2,11.3,29.68,NNW,338,0.0,0.0,55,0.00,,,0.00,VWS V14.00,2013-01-22 01:05:00,
2013-01-21 20:10:00,25.2,11.7,29.68,NNW,338,0.0,0.0,56,0.00,,,0.00,VWS V14.00,2013-01-22 01:10:00,
2013-01-21 20:15:00,25.2,11.7,29.68,North,0,0.0,0.0,56,0.00,,,0.00,VWS V14.00,2013-01-22 01:15:00,
2013-01-21 20:20:00,25.0,11.5,29.68,North,0,0.0,0.0,56,0.00,,,0.00,VWS V14.00,2013-01-22 01:20:00,
2013-01-21 20:25:00,25.0,11.5,29.68,NE,45,0.0,0.0,56,0.00,,,0.00,VWS V14.00,2013-01-22 01:25:00,
2013-01-21 20:30:00,25.0,11.9,29.68,NNW,338,0.0,0.0,57,0.00,,,0.00,VWS V14.00,2013-01-22 01:30:00,
2013-01-21 20:35:00,25.2,12.1,29.68,ENE,68,0.0,0.0,57,0.00,,,0.00,VWS V14.00,2013-01-22 01:35:00,
2013-01-21 20:40:00,25.3,12.2,29.68,North,0,0.0,0.0,57,0.00,,,0.00,VWS V14.00,2013-01-22 01:40:00,
2013-01-21 20:45:00,25.3,12.2,29.68,North,0,0.0,0.0,57,0.00,,,0.00,VWS V14.00,2013-01-22 01:45:00,
2013-01-21 20:50:00,25.0,11.9,29.68,North,0,0.0,0.0,57,0.00,,,0.00,VWS V14.00,2013-01-22 01:50:00,
2013-01-21 20:55:00,25.0,11.9,29.68,North,0,0.0,0.0,57,0.00,,,0.00,VWS V14.00,2013-01-22 01:55:00,
2013-01-21 21:00:00,24.8,12.1,29.68,NNE,22,2.7,2.7,58,0.00,,,0.00,VWS V14.00,2013-01-22 02:00:00,
2013-01-21 21:05:00,24.8,12.1,29.68,North,0,6.3,6.3,58,0.00,,,0.00,VWS V14.00,2013-01-22 02:05:00,
2013-01-21 21:10:00,24.6,12.0,29.68,North,0,4.5,6.3,58,0.00,,,0.00,VWS V14.00,2013-01-22 02:10:00,
2013-01-21 21:15:00,24.6,12.0,29.68,NE,45,2.7,4.9,58,0.00,,,0.00,VWS V14.00,2013-01-22 02:15:00,
2013-01-21 21:20:00,24.4,12.2,29.65,NE,45,7.6,7.6,59,0.00,,,0.00,VWS V14.00,2013-01-22 02:20:00,
2013-01-21 21:25:00,24.3,12.0,29.65,North,0,8.1,8.1,59,0.00,,,0.00,VWS V14.00,2013-01-22 02:25:00,
2013-01-21 21:30:00,24.4,12.6,29.65,North,0,0.0,0.0,60,0.00,,,0.00,VWS V14.00,2013-01-22 02:30:00,
2013-01-21 21:35:00,24.3,12.0,29.65,ESE,112,0.0,0.0,59,0.00,,,0.00,VWS V14.00,2013-01-22 02:35:00,
2013-01-21 21:40:00,24.3,12.4,29.65,ENE,68,0.0,0.0,60,0.00,,,0.00,VWS V14.00,2013-01-22 02:40:00,
2013-01-21 21:45:00,24.3,12.4,29.65,NE,45,0.0,0.0,60,0.00,,,0.00,VWS V14.00,2013-01-22 02:45:00,
2013-01-21 21:50:00,24.3,12.4,29.65,North,0,0.0,0.0,60,0.00,,,0.00,VWS V14.00,2013-01-22 02:50:00,
2013-01-21 21:55:00,24.1,12.2,29.65,East,90,0.0,0.0,60,0.00,,,0.00,VWS V14.00,2013-01-22 02:55:00,
2013-01-21 22:00:00,24.1,12.2,29.65,NNE,22,0.0,0.0,60,0.00,,,0.00,VWS V14.00,2013-01-22 03:00:00,
2013-01-21 22:05:00,24.1,12.2,29.65,NNW,338,1.8,1.8,60,0.00,,,0.00,VWS V14.00,2013-01-22 03:05:00,
2013-01-21 22:10:00,24.1,12.2,29.65,NNE,22,2.7,2.7,60,0.00,,,0.00,VWS V14.00,2013-01-22 03:10:00,
2013-01-21 22:15:00,24.1,12.6,29.65,ENE,68,3.1,3.1,61,0.00,,,0.00,VWS V14.00,2013-01-22 03:15:00,
2013-01-21 22:20:00,23.9,12.4,29.65,NNW,338,0.0,1.8,61,0.00,,,0.00,VWS V14.00,2013-01-22 03:20:00,
2013-01-21 22:25:00,23.9,12.4,29.65,NNW,338,0.0,0.0,61,0.00,,,0.00,VWS V14.00,2013-01-22 03:25:00,
2013-01-21 22:30:00,23.9,12.4,29.65,North,0,8.1,8.1,61,0.00,,,0.00,VWS V14.00,2013-01-22 03:30:00,
2013-01-21 22:35:00,23.9,12.4,29.62,NNW,338,0.0,0.0,61,0.00,,,0.00,VWS V14.00,2013-01-22 03:35:00,
2013-01-21 22:40:00,23.9,12.4,29.62,NNE,22,6.3,6.3,61,0.00,,,0.00,VWS V14.00,2013-01-22 03:40:00,
2013-01-21 22:45:00,23.7,12.2,29.62,NNE,22,3.1,3.1,61,0.00,,,0.00,VWS V14.00,2013-01-22 03:45:00,
2013-01-21 22:50:00,23.7,12.2,29.62,North,0,0.0,0.0,61,0.00,,,0.00,VWS V14.00,2013-01-22 03:50:00,
2013-01-21 22:55:00,23.7,12.2,29.62,NNE,22,7.2,7.2,61,0.00,,,0.00,VWS V14.00,2013-01-22 03:55:00,